Time;durP1;ratioP1;P1;durP2;ratioP2;P2;SDS_P1;SDS_P2;PMS_P1;PMS_P2;Temp;Humidity;BMP_temperature;BMP_pressure;BME280_temperature;BME280_humidity;BME280_pressure;Samples;Min_cycle;Max_cycle;Signal;HPM_P1;HPM_P2
2022/02/13 00:01:06;;;;;;;6.87;4.55;;;;;;;-0.94;73.57;102087.27;1700422;83;20982;-78
2022/02/13 00:03:32;;;;;;;7.78;4.97;;;;;;;-0.95;73.64;102084.26;1710269;83;21569;-78
2022/02/13 00:06:00;;;;;;;9.08;4.72;;;;;;;-0.96;73.64;102084.70;1707915;83;21022;-79
2022/02/13 00:08:27;;;;;;;8.60;5.10;;;;;;;-0.95;73.63;102086.85;1695332;83;22409;-79
2022/02/13 00:10:54;;;;;;;9.13;5.15;;;;;;;-0.97;73.64;102090.72;1695980;83;21075;-78
2022/02/13 00:13:20;;;;;;;10.40;5.40;;;;;;;-0.97;73.59;102091.16;1693779;83;21101;-78
2022/02/13 00:15:46;;;;;;;9.08;5.20;;;;;;;-1.00;73.67;102097.23;1673018;83;21110;-79
2022/02/13 00:18:13;;;;;;;8.68;5.20;;;;;;;-1.03;73.72;102090.77;1699982;83;20979;-77
2022/02/13 00:20:39;;;;;;;9.73;5.17;;;;;;;-1.03;73.72;102094.66;1705383;83;21783;-77
2022/02/13 00:23:08;;;;;;;7.50;4.75;;;;;;;-1.04;73.79;102094.67;1703703;83;21042;-76
2022/02/13 00:25:34;;;;;;;8.25;4.80;;;;;;;-1.03;73.77;102093.80;1702229;83;21014;-75
2022/02/13 00:28:03;;;;;;;8.33;4.78;;;;;;;-1.04;73.71;102090.78;1699132;83;21058;-75
2022/02/13 00:30:29;;;;;;;6.50;3.92;;;;;;;-1.06;73.68;102093.78;1694950;83;21083;-75
2022/02/13 00:32:57;;;;;;;7.45;4.25;;;;;;;-1.10;73.68;102096.84;1714629;83;21818;-75
2022/02/13 00:35:26;;;;;;;7.62;4.53;;;;;;;-1.13;73.77;102089.52;1704372;83;21097;-76
2022/02/13 00:37:52;;;;;;;7.55;4.15;;;;;;;-1.14;73.80;102091.25;1694290;83;20994;-76
2022/02/13 00:40:20;;;;;;;9.43;4.97;;;;;;;-1.15;73.83;102089.53;1707390;83;21042;-76
2022/02/13 00:42:47;;;;;;;9.45;4.97;;;;;;;-1.16;73.79;102097.74;1669155;83;21016;-76
2022/02/13 00:45:14;;;;;;;8.85;5.12;;;;;;;-1.15;73.75;102096.02;1670793;85;21815;-76
2022/02/13 00:47:40;;;;;;;9.93;4.78;;;;;;;-1.17;73.71;102094.69;1692163;83;21362;-76
2022/02/13 00:50:07;;;;;;;8.50;4.80;;;;;;;-1.16;73.67;102086.08;1706789;83;21008;-76
2022/02/13 00:52:35;;;;;;;9.63;4.67;;;;;;;-1.17;73.61;102086.91;1702659;83;21083;-75
2022/02/13 00:55:02;;;;;;;7.92;4.50;;;;;;;-1.18;73.61;102083.89;1703039;83;21023;-77
2022/02/13 00:57:30;;;;;;;6.65;4.15;;;;;;;-1.18;73.56;102087.78;1699458;83;23290;-76
2022/02/13 00:59:56;;;;;;;7.10;4.25;;;;;;;-1.17;73.48;102084.75;1703969;83;21057;-77
2022/02/13 01:02:23;;;;;;;7.58;4.83;;;;;;;-1.18;73.40;102086.48;1712893;83;20967;-77
2022/02/13 01:04:49;;;;;;;9.05;4.42;;;;;;;-1.17;73.33;102096.42;1697590;83;21014;-76
2022/02/13 01:07:18;;;;;;;8.40;4.30;;;;;;;-1.18;73.28;102098.59;1702790;83;21095;-78
2022/02/13 01:09:44;;;;;;;7.28;4.72;;;;;;;-1.18;73.17;102090.81;1713860;83;21879;-80
2022/02/13 01:12:11;;;;;;;8.33;4.25;;;;;;;-1.19;73.12;102096.44;1700857;83;21031;-79
2022/02/13 01:14:37;;;;;;;9.80;5.40;;;;;;;-1.20;73.06;102099.04;1694366;83;21477;-78
2022/02/13 01:17:04;;;;;;;10.93;5.75;;;;;;;-1.24;72.97;102094.31;1711256;83;21445;-79
2022/02/13 01:19:30;;;;;;;8.35;5.25;;;;;;;-1.25;72.93;102095.61;1714985;83;21034;-79
2022/02/13 01:21:58;;;;;;;8.98;5.37;;;;;;;-1.26;72.89;102101.20;1707794;83;21785;-79
2022/02/13 01:24:25;;;;;;;18.48;8.83;;;;;;;-1.27;72.85;102110.28;1692894;83;21110;-79
2022/02/13 01:26:51;;;;;;;38.85;17.60;;;;;;;-1.28;72.81;102104.67;1670643;84;20987;-79
2022/02/13 01:29:18;;;;;;;22.13;10.32;;;;;;;-1.32;72.73;102107.72;1701071;83;21012;-79
2022/02/13 01:31:45;;;;;;;27.67;12.70;;;;;;;-1.34;72.72;102109.46;1710040;83;21382;-79
2022/02/13 01:34:13;;;;;;;27.22;13.20;;;;;;;-1.38;72.73;102102.55;1722832;83;22800;-79
2022/02/13 01:36:41;;;;;;;42.10;19.77;;;;;;;-1.40;72.72;102108.60;1715138;83;21000;-80
2022/02/13 01:39:07;;;;;;;33.48;15.80;;;;;;;-1.42;72.68;102106.02;1695236;84;20998;-79
2022/02/13 01:41:33;;;;;;;19.73;10.18;;;;;;;-1.46;72.67;102099.09;1706672;82;21018;-79
2022/02/13 01:44:00;;;;;;;12.37;7.28;;;;;;;-1.49;72.67;102097.82;1710754;81;21486;-79
2022/02/13 01:46:26;;;;;;;12.45;6.97;;;;;;;-1.52;72.66;102096.11;1705599;83;22443;-80
2022/02/13 01:48:54;;;;;;;10.53;6.83;;;;;;;-1.54;72.66;102096.55;1692753;83;21426;-79
2022/02/13 01:51:22;;;;;;;9.83;6.85;;;;;;;-1.55;72.65;102096.09;1690431;84;21082;-79
2022/02/13 01:53:49;;;;;;;11.85;7.00;;;;;;;-1.56;72.59;102099.55;1653514;84;21040;-79
2022/02/13 01:56:16;;;;;;;11.93;7.80;;;;;;;-1.58;72.58;102104.31;1693181;84;21043;-80
2022/02/13 01:58:44;;;;;;;10.95;7.25;;;;;;;-1.60;72.56;102099.58;1675183;83;22836;-79
2022/02/13 02:01:11;;;;;;;14.55;7.67;;;;;;;-1.62;72.55;102101.31;1689913;84;21582;-79
2022/02/13 02:03:40;;;;;;;19.15;10.05;;;;;;;-1.66;72.53;102108.20;1695303;84;21011;-80
2022/02/13 02:06:07;;;;;;;71.65;34.40;;;;;;;-1.66;72.54;102109.94;1696207;83;21047;-80
2022/02/13 02:08:33;;;;;;;30.15;16.45;;;;;;;-1.70;72.59;102103.05;1671114;84;20980;-81
2022/02/13 02:11:00;;;;;;;22.50;12.85;;;;;;;-1.71;72.67;102102.62;1674516;84;21769;-80
2022/02/13 02:13:27;;;;;;;20.82;10.82;;;;;;;-1.72;72.69;102095.72;1706796;81;21070;-80
2022/02/13 02:15:54;;;;;;;16.93;9.43;;;;;;;-1.76;72.71;102095.70;1710234;83;21008;-80
2022/02/13 02:18:20;;;;;;;15.80;9.40;;;;;;;-1.78;72.74;102094.84;1695972;83;21019;-80
2022/02/13 02:20:49;;;;;;;55.70;28.27;;;;;;;-1.79;72.73;102090.97;1711001;81;21432;-80
2022/02/13 02:23:17;;;;;;;28.12;15.58;;;;;;;-1.85;72.68;102087.93;1696047;83;21844;-81
2022/02/13 02:25:44;;;;;;;23.18;13.13;;;;;;;-1.88;72.67;102097.02;1694845;83;20957;-81
2022/02/13 02:28:11;;;;;;;18.80;11.15;;;;;;;-1.94;72.65;102100.88;1687293;84;21090;-80
2022/02/13 02:30:38;;;;;;;18.30;10.58;;;;;;;-1.98;72.72;102112.55;1692224;83;21023;-78
2022/02/13 02:33:04;;;;;;;19.37;10.35;;;;;;;-2.02;72.78;102109.11;1701836;83;21074;-78
2022/02/13 02:35:32;;;;;;;19.17;10.13;;;;;;;-2.05;72.86;102114.27;1710613;81;22615;-79
2022/02/13 02:38:00;;;;;;;16.87;9.38;;;;;;;-2.05;72.94;102114.27;1692288;83;21496;-79
2022/02/13 02:40:27;;;;;;;20.60;10.13;;;;;;;-2.05;73.00;102115.56;1694386;83;21044;-79
2022/02/13 02:42:53;;;;;;;18.15;9.98;;;;;;;-2.07;73.07;102111.69;1698437;83;21048;-77
2022/02/13 02:45:20;;;;;;;18.50;9.80;;;;;;;-2.08;73.11;102116.86;1703362;83;21072;-79
2022/02/13 02:47:46;;;;;;;18.40;10.43;;;;;;;-2.08;73.20;102115.57;1696134;83;21814;-80
2022/02/13 02:50:13;;;;;;;15.15;10.23;;;;;;;-2.07;73.25;102111.69;1673245;83;21124;-79
2022/02/13 02:52:40;;;;;;;16.57;9.48;;;;;;;-2.06;73.31;102112.55;1713873;83;21056;-78
2022/02/13 02:55:08;;;;;;;19.48;11.68;;;;;;;-2.06;73.38;102109.95;1692289;83;21091;-79
2022/02/13 02:57:36;;;;;;;25.90;15.93;;;;;;;-2.06;73.45;102115.13;1714504;83;21110;-80
2022/02/13 03:00:06;;;;;;;31.20;20.37;;;;;;;-2.07;73.43;102119.45;1691886;83;21735;-80
2022/02/13 03:02:34;;;;;;;21.85;13.72;;;;;;;-2.10;73.41;102115.58;1702088;83;21041;-79
2022/02/13 03:05:01;;;;;;;16.40;10.30;;;;;;;-2.12;73.44;102121.63;1700802;83;21029;-80
2022/02/13 03:07:29;;;;;;;17.87;10.40;;;;;;;-2.14;73.44;102116.84;1694247;83;21077;-78
2022/02/13 03:09:55;;;;;;;19.07;9.98;;;;;;;-2.16;73.46;102122.03;1693273;83;21209;-78
2022/02/13 03:12:22;;;;;;;17.37;10.05;;;;;;;-2.20;73.43;102128.08;1709208;83;22576;-78
2022/02/13 03:14:49;;;;;;;16.15;9.20;;;;;;;-2.22;73.41;102119.45;1702794;83;21068;-78
2022/02/13 03:17:16;;;;;;;14.25;9.48;;;;;;;-2.24;73.39;102114.69;1701289;83;21068;-79
2022/02/13 03:19:42;;;;;;;13.25;9.53;;;;;;;-2.29;73.34;102120.73;1695856;83;20981;-78
2022/02/13 03:22:09;;;;;;;13.95;8.83;;;;;;;-2.34;73.40;102110.36;1714534;83;21009;-79
2022/02/13 03:24:35;;;;;;;14.13;9.38;;;;;;;-2.37;73.45;102109.93;1701405;83;22170;-80
2022/02/13 03:27:03;;;;;;;18.92;11.55;;;;;;;-2.39;73.37;102114.25;1689861;83;21021;-79
2022/02/13 03:29:29;;;;;;;24.55;13.15;;;;;;;-2.40;73.35;102111.66;1697961;83;21488;-80
2022/02/13 03:31:56;;;;;;;25.08;13.60;;;;;;;-2.42;73.31;102117.23;1688830;83;21052;-79
2022/02/13 03:34:22;;;;;;;20.60;11.95;;;;;;;-2.46;73.26;102114.23;1658515;84;21104;-79
2022/02/13 03:36:48;;;;;;;21.40;11.88;;;;;;;-2.50;73.22;102117.68;1689153;84;21740;-79
2022/02/13 03:39:15;;;;;;;16.67;10.70;;;;;;;-2.52;73.21;102116.36;1677289;84;21433;-79
2022/02/13 03:41:42;;;;;;;23.22;12.40;;;;;;;-2.54;73.23;102121.10;1680201;84;21398;-79
2022/02/13 03:44:09;;;;;;;47.30;26.77;;;;;;;-2.56;73.27;102126.71;1654134;84;21630;-80
2022/02/13 03:46:36;;;;;;;48.17;26.62;;;;;;;-2.60;73.27;102118.95;1694431;84;21041;-79
2022/02/13 03:49:03;;;;;;;36.73;20.90;;;;;;;-2.61;73.35;102115.94;1681165;83;21793;-78
2022/02/13 03:51:31;;;;;;;24.67;13.65;;;;;;;-2.62;73.36;102116.77;1676033;84;21092;-79
2022/02/13 03:53:58;;;;;;;19.00;12.80;;;;;;;-2.62;73.38;102122.37;1677540;84;21080;-79
2022/02/13 03:56:24;;;;;;;17.92;11.40;;;;;;;-2.65;73.44;102125.82;1697556;84;20965;-79
2022/02/13 03:58:51;;;;;;;13.90;9.30;;;;;;;-2.65;73.52;102121.08;1675734;84;20989;-79
2022/02/13 04:01:17;;;;;;;18.40;10.13;;;;;;;-2.71;73.53;102122.34;1695477;84;21773;-79
2022/02/13 04:03:44;;;;;;;17.95;10.10;;;;;;;-2.80;73.67;102119.72;1686952;84;21022;-77
2022/02/13 04:06:11;;;;;;;16.45;9.70;;;;;;;-2.83;73.75;102120.58;1680817;84;21068;-77
2022/02/13 04:08:38;;;;;;;15.95;10.60;;;;;;;-2.82;73.74;102123.59;1678316;83;21069;-78
2022/02/13 04:11:08;;;;;;;22.27;11.85;;;;;;;-2.82;73.69;102121.45;1689466;84;21025;-79
2022/02/13 04:13:35;;;;;;;20.50;12.13;;;;;;;-2.85;73.66;102114.98;1681444;84;21859;-79
2022/02/13 04:16:02;;;;;;;21.10;12.28;;;;;;;-2.87;73.69;102116.70;1682317;84;20978;-79
2022/02/13 04:18:29;;;;;;;27.48;15.80;;;;;;;-2.89;73.69;102117.56;1688064;84;21089;-79
2022/02/13 04:20:55;;;;;;;25.00;16.35;;;;;;;-2.90;73.68;102113.22;1684121;84;21160;-79
2022/02/13 04:23:22;;;;;;;23.80;14.18;;;;;;;-2.93;73.65;102119.69;1694354;84;20985;-78
2022/02/13 04:25:48;;;;;;;20.85;12.03;;;;;;;-2.96;73.63;102120.97;1687718;84;22222;-79
2022/02/13 04:28:15;;;;;;;22.05;11.03;;;;;;;-2.98;73.63;102117.53;1676468;83;21013;-80
2022/02/13 04:30:42;;;;;;;17.55;10.70;;;;;;;-3.00;73.67;102111.89;1690671;84;21037;-79
2022/02/13 04:33:08;;;;;;;16.37;10.30;;;;;;;-3.00;73.69;102114.05;1688799;83;21028;-80
2022/02/13 04:35:36;;;;;;;19.67;10.72;;;;;;;-3.01;73.78;102113.61;1686404;84;21425;-78
2022/02/13 04:38:03;;;;;;;18.02;9.98;;;;;;;-3.01;73.87;102114.05;1683093;84;21840;-79
2022/02/13 04:40:30;;;;;;;16.32;9.85;;;;;;;-3.02;73.86;102113.18;1682328;84;20997;-79
2022/02/13 04:42:56;;;;;;;15.70;10.08;;;;;;;-3.02;73.89;102112.31;1679812;84;21100;-79
2022/02/13 04:45:23;;;;;;;16.80;10.13;;;;;;;-3.06;73.93;102114.47;1682460;84;21021;-79
2022/02/13 04:47:49;;;;;;;20.85;11.22;;;;;;;-3.06;73.97;102115.33;1676304;84;21037;-79
2022/02/13 04:50:22;;;;;;;20.05;11.75;;;;;;;-3.04;73.95;102108.44;1674071;85;21838;-79
2022/02/13 04:52:45;;;;;;;20.82;12.10;;;;;;;-3.03;73.85;102115.77;1680289;84;20962;-77
2022/02/13 04:55:12;;;;;;;18.95;11.75;;;;;;;-3.04;73.77;102121.36;1677004;84;20990;-80
2022/02/13 04:57:39;;;;;;;19.25;12.13;;;;;;;-3.06;73.69;102126.10;1678916;84;21232;-77
2022/02/13 05:00:07;;;;;;;20.75;11.75;;;;;;;-3.11;73.66;102118.73;1693444;84;21044;-77
2022/02/13 05:02:34;;;;;;;18.90;11.95;;;;;;;-3.14;73.61;102126.06;1692273;84;22422;-77
2022/02/13 05:05:00;;;;;;;18.98;11.38;;;;;;;-3.15;73.63;102121.75;1700024;84;21002;-77
2022/02/13 05:07:27;;;;;;;17.55;11.08;;;;;;;-3.18;73.61;102123.89;1690127;83;21064;-77
2022/02/13 05:09:53;;;;;;;18.12;11.12;;;;;;;-3.18;73.62;102123.89;1690787;84;20981;-75
2022/02/13 05:12:22;;;;;;;18.87;10.48;;;;;;;-3.18;73.64;102127.77;1685960;83;20962;-77
2022/02/13 05:14:49;;;;;;;13.93;7.92;;;;;;;-3.18;73.63;102129.50;1682951;84;22198;-77
2022/02/13 05:17:16;;;;;;;15.45;9.15;;;;;;;-3.19;73.69;102138.94;1685058;84;21097;-75
2022/02/13 05:19:42;;;;;;;15.08;8.93;;;;;;;-3.19;73.75;102131.19;1675950;84;20986;-77
2022/02/13 05:22:09;;;;;;;13.70;8.23;;;;;;;-3.20;73.81;102128.59;1683199;83;21393;-77
2022/02/13 05:24:36;;;;;;;13.18;7.72;;;;;;;-3.18;73.92;102138.11;1678358;84;21161;-77
2022/02/13 05:27:05;;;;;;;12.00;7.90;;;;;;;-3.17;74.02;102135.95;1689660;84;21436;-77
2022/02/13 05:29:35;;;;;;;15.88;7.17;;;;;;;-3.16;74.09;102136.82;1684666;84;21049;-76
2022/02/13 05:32:03;;;;;;;14.07;8.18;;;;;;;-3.14;74.16;102135.11;1682141;84;21109;-75
2022/02/13 05:34:30;;;;;;;14.15;7.90;;;;;;;-3.13;74.23;102129.08;1696771;83;21075;-76
2022/02/13 05:36:57;;;;;;;12.60;7.17;;;;;;;-3.12;74.32;102128.22;1697229;83;22422;-78
2022/02/13 05:39:24;;;;;;;12.00;6.92;;;;;;;-3.10;74.37;102131.66;1705376;83;21793;-74
2022/02/13 05:41:51;;;;;;;12.05;7.58;;;;;;;-3.08;74.42;102142.91;1694112;83;21036;-76
2022/02/13 05:44:17;;;;;;;12.37;7.90;;;;;;;-3.06;74.52;102141.61;1691347;83;21021;-76
2022/02/13 05:46:43;;;;;;;13.50;7.97;;;;;;;-3.04;74.60;102137.30;1704308;83;21048;-76
2022/02/13 05:49:10;;;;;;;13.20;8.00;;;;;;;-3.01;74.64;102140.75;1694482;83;21013;-78
2022/02/13 05:51:37;;;;;;;12.60;8.00;;;;;;;-2.96;74.71;102145.97;1714123;83;21579;-76
2022/02/13 05:54:03;;;;;;;16.02;8.25;;;;;;;-2.93;74.75;102137.78;1693881;83;21460;-77
2022/02/13 05:56:30;;;;;;;16.75;8.23;;;;;;;-2.88;74.81;102141.70;1690076;83;21012;-76
2022/02/13 05:58:56;;;;;;;12.53;7.47;;;;;;;-2.84;74.90;102152.47;1680058;83;21108;-77
2022/02/13 06:01:23;;;;;;;12.65;7.35;;;;;;;-2.80;74.98;102152.05;1693766;83;20977;-76
2022/02/13 06:03:50;;;;;;;10.95;7.35;;;;;;;-2.77;75.13;102153.38;1690013;83;21823;-78
2022/02/13 06:06:16;;;;;;;12.85;7.50;;;;;;;-2.73;75.30;102152.08;1697543;83;21116;-76
2022/02/13 06:08:42;;;;;;;12.63;7.53;;;;;;;-2.67;75.46;102152.12;1693662;82;20977;-74
2022/02/13 06:11:11;;;;;;;11.53;7.30;;;;;;;-2.60;75.56;102151.28;1686763;83;21072;-74
2022/02/13 06:13:37;;;;;;;62.78;22.80;;;;;;;-2.54;75.67;102149.13;1700310;83;21016;-76
2022/02/13 06:16:06;;;;;;;178.23;58.23;;;;;;;-2.48;75.75;102145.27;1692917;83;21815;-76
2022/02/13 06:18:39;;;;;;;120.05;41.60;;;;;;;-2.43;75.83;102144.84;1697519;83;20973;-80
2022/02/13 06:21:06;;;;;;;128.87;43.70;;;;;;;-2.36;75.89;102149.61;1691070;83;21051;-79
2022/02/13 06:23:33;;;;;;;105.67;37.45;;;;;;;-2.27;75.96;102158.69;1697626;83;21009;-78
2022/02/13 06:26:00;;;;;;;45.95;19.42;;;;;;;-2.19;76.08;102163.89;1691722;83;21118;-82
2022/02/13 06:28:26;;;;;;;28.67;12.78;;;;;;;-2.12;76.19;102156.14;1688834;83;21813;-79
2022/02/13 06:30:53;;;;;;;18.57;9.50;;;;;;;-2.03;76.26;102155.26;1698359;83;20981;-81
2022/02/13 06:33:19;;;;;;;13.53;7.60;;;;;;;-1.93;76.37;102161.30;1691911;83;21018;-80
2022/02/13 06:35:46;;;;;;;13.15;8.68;;;;;;;-1.87;76.33;102158.73;1680844;84;21112;-78
2022/02/13 06:38:14;;;;;;;15.13;8.10;;;;;;;-1.82;76.35;102154.43;1677813;84;21045;-79
2022/02/13 06:40:44;;;;;;;12.93;7.00;;;;;;;-1.77;76.36;102159.16;1677524;84;21829;-77
2022/02/13 06:43:10;;;;;;;12.20;6.60;;;;;;;-1.69;76.44;102152.69;1684842;84;21147;-74
2022/02/13 06:45:37;;;;;;;9.15;5.95;;;;;;;-1.62;76.45;102155.72;1682844;84;21484;-77
2022/02/13 06:48:05;;;;;;;10.93;6.87;;;;;;;-1.53;76.51;102150.09;1691290;84;21072;-75
2022/02/13 06:50:31;;;;;;;11.05;6.05;;;;;;;-1.46;76.44;102150.50;1691200;84;20855;-78
2022/02/13 06:52:58;;;;;;;9.48;6.12;;;;;;;-1.39;76.45;102144.88;1680408;84;21836;-75
2022/02/13 06:55:25;;;;;;;10.72;6.55;;;;;;;-1.31;76.36;102155.24;1687015;84;21388;-77
2022/02/13 06:57:52;;;;;;;10.03;6.65;;;;;;;-1.24;76.34;102140.97;1691889;84;21362;-75
2022/02/13 07:00:18;;;;;;;13.22;7.12;;;;;;;-1.19;76.25;102137.05;1681309;84;21535;-73
2022/02/13 07:02:45;;;;;;;16.25;9.15;;;;;;;-1.15;76.25;102142.68;1675860;84;20965;-73
2022/02/13 07:05:12;;;;;;;22.87;11.50;;;;;;;-1.06;76.33;102146.95;1672094;84;22660;-76
2022/02/13 07:07:39;;;;;;;19.07;10.38;;;;;;;-0.98;76.22;102149.09;1696171;84;21108;-77
2022/02/13 07:10:07;;;;;;;14.05;7.60;;;;;;;-0.91;76.15;102149.50;1662984;84;20998;-75
2022/02/13 07:12:35;;;;;;;11.05;7.12;;;;;;;-0.83;76.13;102141.27;1677832;84;21509;-74
2022/02/13 07:15:05;;;;;;;12.40;7.30;;;;;;;-0.75;76.07;102139.94;1683467;84;21048;-79
2022/02/13 07:17:33;;;;;;;10.85;6.80;;;;;;;-0.66;75.86;102152.88;1696186;84;21827;-81
2022/02/13 07:20:00;;;;;;;12.25;7.25;;;;;;;-0.63;75.63;102145.06;1684498;83;21029;-75
2022/02/13 07:22:26;;;;;;;8.63;5.92;;;;;;;-0.61;75.51;102151.10;1682623;84;21394;-80
2022/02/13 07:24:53;;;;;;;10.15;6.20;;;;;;;-0.55;75.42;102142.44;1681086;84;20989;-82
2022/02/13 07:27:19;;;;;;;8.00;6.15;;;;;;;-0.51;75.25;102137.20;1689131;84;21053;-80
2022/02/13 07:29:46;;;;;;;12.13;7.15;;;;;;;-0.45;75.12;102143.67;1688260;83;21829;-74
2022/02/13 07:32:12;;;;;;;10.10;6.03;;;;;;;-0.39;75.02;102134.53;1692019;84;21054;-79
2022/02/13 07:34:39;;;;;;;11.43;7.12;;;;;;;-0.29;74.98;102139.23;1675918;84;20985;-79
2022/02/13 07:37:07;;;;;;;11.25;7.28;;;;;;;-0.20;74.81;102143.06;1682162;84;21064;-80
2022/02/13 07:39:35;;;;;;;9.90;6.50;;;;;;;-0.10;74.59;102149.92;1675701;84;20977;-80
2022/02/13 07:42:03;;;;;;;9.35;6.30;;;;;;;-0.06;74.34;102144.29;1684789;84;21791;-74
2022/02/13 07:44:30;;;;;;;9.58;6.30;;;;;;;-0.01;74.24;102143.80;1692186;84;21077;-82
2022/02/13 07:46:58;;;;;;;9.80;5.97;;;;;;;0.09;74.16;102144.59;1682276;84;21024;-80
2022/02/13 07:49:25;;;;;;;9.20;6.25;;;;;;;0.14;73.77;102141.53;1691281;84;20977;-78
2022/02/13 07:51:52;;;;;;;9.70;6.05;;;;;;;0.16;73.45;102137.18;1678084;83;21432;-78
2022/02/13 07:54:19;;;;;;;8.60;5.62;;;;;;;0.21;73.33;102136.28;1676148;84;22561;-79
2022/02/13 07:56:45;;;;;;;9.05;6.10;;;;;;;0.32;73.25;102134.89;1676804;84;20970;-76
2022/02/13 07:59:12;;;;;;;9.05;6.12;;;;;;;0.40;73.03;102134.39;1689008;84;21006;-74
2022/02/13 08:01:38;;;;;;;10.68;6.65;;;;;;;0.47;72.83;102125.63;1686526;84;21021;-78
2022/02/13 08:04:05;;;;;;;13.22;6.37;;;;;;;0.54;72.63;102128.60;1681578;84;21100;-80
2022/02/13 08:06:32;;;;;;;8.98;5.78;;;;;;;0.59;72.27;102127.71;1687344;84;21789;-81
2022/02/13 08:08:59;;;;;;;9.53;6.25;;;;;;;0.64;72.10;102132.41;1680889;84;21023;-82
2022/02/13 08:11:26;;;;;;;8.25;5.70;;;;;;;0.69;71.86;102127.59;1675734;85;21012;-80
2022/02/13 08:13:54;;;;;;;8.55;5.60;;;;;;;0.76;71.60;102127.07;1690631;84;21028;-82
2022/02/13 08:16:22;;;;;;;9.35;5.95;;;;;;;0.80;71.24;102121.84;1695393;83;21081;-79
2022/02/13 08:18:49;;;;;;;8.23;5.30;;;;;;;0.87;71.15;102125.23;1688446;84;22175;-74
2022/02/13 08:21:17;;;;;;;7.17;4.75;;;;;;;0.95;70.63;102122.52;1678219;84;20973;-76
2022/02/13 08:23:44;;;;;;;8.48;4.78;;;;;;;1.00;70.33;102111.20;1697413;84;20958;-77
2022/02/13 08:26:11;;;;;;;7.53;4.70;;;;;;;1.07;69.92;102108.09;1701916;84;21006;-79
2022/02/13 08:28:38;;;;;;;11.57;7.05;;;;;;;1.13;69.62;102109.30;1685680;84;21097;-76
2022/02/13 08:31:04;;;;;;;8.48;4.53;;;;;;;1.20;69.10;102117.45;1692915;84;21866;-83
2022/02/13 08:33:32;;;;;;;7.47;4.55;;;;;;;1.26;68.59;102108.27;1690106;84;21006;-85
2022/02/13 08:36:00;;;;;;;8.13;4.95;;;;;;;1.29;68.19;102100.86;1690624;84;21563;-79
2022/02/13 08:38:26;;;;;;;7.35;4.20;;;;;;;1.36;68.01;102105.11;1692028;84;21044;-80
2022/02/13 08:40:53;;;;;;;8.03;4.25;;;;;;;1.46;67.86;102097.59;1691367;84;21009;-81
2022/02/13 08:43:20;;;;;;;7.80;4.60;;;;;;;1.61;67.41;102100.39;1696112;84;21802;-85
2022/02/13 08:45:50;;;;;;;7.87;4.95;;;;;;;1.73;66.83;102099.76;1680328;84;21532;-79
2022/02/13 08:48:15;;;;;;;7.78;4.83;;;;;;;1.84;66.58;102093.55;1686895;84;20981;-84
2022/02/13 08:50:43;;;;;;;8.73;5.40;;;;;;;1.92;66.69;102096.42;1662999;84;21030;-77
2022/02/13 08:53:10;;;;;;;8.05;4.97;;;;;;;1.96;66.39;102085.09;1682763;84;21069;-77
2022/02/13 08:55:37;;;;;;;8.40;5.00;;;;;;;2.02;66.09;102088.02;1686712;84;21833;-78
2022/02/13 08:58:06;;;;;;;7.85;5.70;;;;;;;2.07;66.11;102087.95;1665890;85;20958;-74
2022/02/13 09:00:33;;;;;;;8.60;5.60;;;;;;;2.10;66.06;102086.14;1683086;84;21026;-70
2022/02/13 09:03:01;;;;;;;7.92;5.22;;;;;;;2.10;65.80;102091.36;1702947;84;21112;-74
2022/02/13 09:05:28;;;;;;;9.70;6.12;;;;;;;2.11;65.61;102093.52;1683847;84;21076;-79
2022/02/13 09:07:55;;;;;;;9.30;6.03;;;;;;;2.11;65.63;102096.98;1681992;84;21820;-78
2022/02/13 09:10:21;;;;;;;10.32;6.37;;;;;;;2.15;65.28;102086.95;1683494;84;21091;-79
2022/02/13 09:12:48;;;;;;;9.53;6.10;;;;;;;2.17;64.92;102090.38;1677263;84;21074;-74
2022/02/13 09:15:15;;;;;;;6.67;4.17;;;;;;;2.22;64.20;102088.56;1694894;84;21112;-76
2022/02/13 09:17:41;;;;;;;8.35;4.92;;;;;;;2.27;63.68;102080.20;1682147;83;21084;-74
2022/02/13 09:20:09;;;;;;;9.90;4.03;;;;;;;2.33;63.19;102087.07;1683020;84;21791;-73
2022/02/13 09:22:36;;;;;;;4.35;2.55;;;;;;;2.43;63.01;102078.63;1680722;84;21578;-75
2022/02/13 09:25:04;;;;;;;5.75;2.70;;;;;;;2.51;61.48;102080.22;1691527;84;21060;-73
2022/02/13 09:27:30;;;;;;;5.53;3.30;;;;;;;2.58;60.78;102084.41;1685431;84;21021;-74
2022/02/13 09:29:56;;;;;;;8.55;4.17;;;;;;;2.64;60.10;102078.22;1681673;84;21092;-72
2022/02/13 09:32:25;;;;;;;5.75;2.72;;;;;;;2.73;59.71;102074.13;1683974;84;21785;-71
2022/02/13 09:34:52;;;;;;;6.00;3.37;;;;;;;2.81;58.77;102068.32;1691964;83;21539;-73
2022/02/13 09:37:18;;;;;;;6.10;2.80;;;;;;;2.90;58.77;102063.81;1679709;84;21111;-76
2022/02/13 09:39:48;;;;;;;5.62;3.50;;;;;;;2.99;57.82;102066.20;1686172;84;21083;-72
2022/02/13 09:42:14;;;;;;;3.67;2.15;;;;;;;3.04;56.78;102064.37;1688588;83;21116;-75
2022/02/13 09:44:41;;;;;;;3.10;2.15;;;;;;;3.12;55.23;102063.77;1683789;84;22794;-72
2022/02/13 09:47:08;;;;;;;4.50;2.50;;;;;;;3.18;54.97;102060.14;1692919;84;20937;-70
2022/02/13 09:49:34;;;;;;;3.72;2.10;;;;;;;3.27;54.93;102054.27;1693961;84;21072;-70
2022/02/13 09:52:01;;;;;;;4.95;2.22;;;;;;;3.36;54.20;102055.82;1697814;84;21393;-74
2022/02/13 09:54:28;;;;;;;4.60;1.92;;;;;;;3.44;53.02;102046.92;1686565;84;21082;-73
2022/02/13 09:57:59;;;;;;;3.08;1.90;;;;;;;3.52;52.92;102043.28;1697572;84;21793;-73
2022/02/13 09:59:22;;;;;;;3.33;1.80;;;;;;;3.60;52.10;102041.34;1682006;84;21032;-73
2022/02/13 10:01:49;;;;;;;3.75;2.02;;;;;;;3.71;50.96;102032.80;1686065;84;21077;-73
2022/02/13 10:04:17;;;;;;;5.50;1.98;;;;;;;3.77;51.26;102035.72;1679289;84;21052;-75
2022/02/13 10:06:43;;;;;;;3.83;1.80;;;;;;;3.87;50.29;102030.22;1686816;84;21071;-76
2022/02/13 10:09:10;;;;;;;3.95;2.02;;;;;;;3.99;50.98;102027.29;1681114;84;22160;-74
2022/02/13 10:11:40;;;;;;;3.12;1.82;;;;;;;4.12;50.72;102025.20;1681944;83;21169;-73
2022/02/13 10:14:14;;;;;;;3.27;1.90;;;;;;;4.29;51.09;102028.69;1682032;83;21096;-73
2022/02/13 10:16:45;;;;;;;4.70;2.20;;;;;;;4.42;50.32;102018.73;1691867;84;21048;-74
2022/02/13 10:19:15;;;;;;;4.65;2.30;;;;;;;4.56;49.28;102017.92;1675524;84;21049;-70
2022/02/13 10:21:46;;;;;;;3.95;2.10;;;;;;;4.60;49.09;102011.23;1699191;84;20998;-74
2022/02/13 10:24:31;;;;;;;5.28;2.17;;;;;;;4.66;48.90;102011.52;1701018;84;21065;-74
2022/02/13 10:27:17;;;;;;;4.92;2.47;;;;;;;4.77;49.59;102011.20;1678205;84;21076;-75
2022/02/13 10:29:50;;;;;;;4.87;2.70;;;;;;;4.88;47.78;102006.05;1683437;84;21056;-75
2022/02/13 10:32:25;;;;;;;3.90;2.22;;;;;;;4.88;48.25;102009.13;1663151;84;21080;-78
2022/02/13 10:35:10;;;;;;;3.42;2.02;;;;;;;4.97;47.74;101997.52;1660238;83;21811;-76
2022/02/13 10:37:50;;;;;;;3.85;1.70;;;;;;;5.00;46.93;101990.42;1711877;83;21328;-77
2022/02/13 10:40:25;;;;;;;3.05;1.80;;;;;;;5.03;46.75;101998.21;1696819;83;21515;-77
2022/02/13 10:43:04;;;;;;;2.92;1.50;;;;;;;5.09;46.03;101990.14;1698988;83;21533;-80
2022/02/13 10:45:34;;;;;;;2.62;1.60;;;;;;;5.11;44.86;101987.47;1687791;83;21100;-75
2022/02/13 10:48:06;;;;;;;3.65;2.12;;;;;;;5.10;45.68;101981.38;1658568;83;21906;-74
2022/02/13 10:50:39;;;;;;;3.35;2.00;;;;;;;5.16;45.22;101979.03;1695633;83;21135;-77
2022/02/13 10:53:06;;;;;;;;;;;;;;;5.22;45.10;101981.47;1661880;85;21555;-75
2022/02/13 10:55:35;;;;;;;3.33;1.87;;;;;;;5.27;45.48;101972.14;1707828;83;20529;-80
2022/02/13 10:58:02;;;;;;;3.42;2.10;;;;;;;5.28;45.98;101971.23;1707340;83;21048;-74
2022/02/13 11:00:31;;;;;;;4.95;2.42;;;;;;;5.29;45.49;101965.09;1710946;83;22229;-74
2022/02/13 11:03:02;;;;;;;12.68;9.38;;;;;;;5.31;46.26;101965.92;1713130;83;21047;-75
2022/02/13 11:05:30;;;;;;;9.45;7.90;;;;;;;5.42;45.94;101954.63;1711706;83;21048;-75
2022/02/13 11:08:06;;;;;;;5.20;2.80;;;;;;;5.56;45.83;101962.03;1695857;83;21075;-74
2022/02/13 11:10:47;;;;;;;4.60;2.85;;;;;;;5.61;44.64;101954.88;1697941;83;21036;-74
2022/02/13 11:13:14;;;;;;;4.75;2.80;;;;;;;5.57;44.38;101942.31;1713259;82;21929;-74
2022/02/13 11:15:47;;;;;;;3.92;1.98;;;;;;;5.63;45.98;101940.81;1672133;83;21496;-76
2022/02/13 11:18:22;;;;;;;3.27;2.60;;;;;;;5.73;44.47;101942.66;1690835;83;21075;-73
2022/02/13 11:20:49;;;;;;;3.40;2.50;;;;;;;5.80;44.16;101941.55;1675461;83;21043;-73
2022/02/13 11:23:33;;;;;;;3.83;2.77;;;;;;;5.88;44.08;101927.69;1712244;82;21608;-77